createdAt,value
2022-12-15T00:00:48.860Z,1.60
2022-12-15T00:03:34.365Z,2.01
2022-12-15T00:06:19.619Z,1.95
2022-12-15T00:09:07.464Z,2.40
2022-12-15T00:11:54.716Z,2.26
2022-12-15T00:22:25.764Z,2.10
2022-12-15T00:25:16.880Z,2.16
2022-12-15T00:28:02.252Z,2.35
2022-12-15T00:39:19.646Z,2.36
2022-12-15T00:41:46.209Z,2.55
2022-12-15T00:44:17.288Z,2.64
2022-12-15T00:46:55.932Z,2.43
2022-12-15T00:50:04.746Z,2.67
2022-12-15T00:52:49.964Z,2.41
2022-12-15T00:55:35.196Z,2.79
2022-12-15T00:58:20.777Z,2.41
2022-12-15T01:07:15.093Z,2.35
2022-12-15T01:10:00.562Z,2.49
2022-12-15T01:12:45.579Z,2.43
2022-12-15T01:15:31.075Z,2.00
2022-12-15T01:18:17.099Z,2.41
2022-12-15T01:23:18.891Z,2.19
2022-12-15T01:25:45.780Z,2.43
2022-12-15T01:31:14.267Z,2.76
2022-12-15T01:37:41.633Z,2.73
2022-12-15T01:42:43.781Z,2.37
2022-12-15T01:45:47.329Z,2.50
2022-12-15T01:48:18.962Z,2.57
2022-12-15T01:50:52.350Z,2.48
2022-12-15T01:55:54.524Z,2.41
2022-12-15T01:58:22.493Z,2.24
2022-12-15T02:00:49.099Z,1.95
2022-12-15T02:03:16.360Z,2.29
2022-12-15T02:05:43.081Z,2.47
2022-12-15T02:08:10.959Z,2.49
2022-12-15T02:14:32.492Z,2.72
2022-12-15T02:17:34.166Z,2.71
2022-12-15T02:20:26.616Z,2.56
2022-12-15T02:23:54.419Z,2.89
2022-12-15T02:26:51.196Z,3.01
2022-12-15T02:29:26.699Z,2.96
2022-12-15T02:32:03.996Z,3.04
2022-12-15T02:34:45.774Z,3.06
2022-12-15T02:37:40.237Z,3.09
2022-12-15T02:40:09.808Z,3.13
2022-12-15T02:42:42.941Z,3.19
2022-12-15T02:45:11.650Z,3.23
2022-12-15T02:48:45.760Z,3.17
2022-12-15T02:51:22.656Z,3.26
2022-12-15T02:54:33.034Z,3.31
2022-12-15T04:46:56.296Z,2.42
2022-12-15T04:52:50.653Z,2.39
2022-12-15T04:55:35.691Z,2.51
2022-12-15T04:58:27.879Z,2.18
2022-12-15T05:01:16.509Z,2.48
2022-12-15T05:04:02.193Z,2.41
2022-12-15T05:06:47.435Z,2.20
2022-12-15T05:12:08.272Z,2.25
2022-12-15T05:15:11.967Z,2.23
2022-12-15T05:29:58.413Z,1.84
2022-12-15T05:32:25.041Z,1.94
2022-12-15T05:34:51.621Z,2.05
2022-12-15T05:37:18.168Z,2.00
2022-12-15T05:39:44.740Z,1.95
2022-12-15T05:56:42.205Z,2.46
2022-12-15T05:59:29.629Z,2.17
2022-12-15T06:01:56.216Z,2.17
2022-12-15T06:04:22.989Z,2.23
2022-12-15T06:06:49.580Z,2.14
2022-12-15T06:09:16.104Z,2.27
2022-12-15T06:11:43.659Z,2.44
2022-12-15T06:14:10.400Z,2.48
2022-12-15T06:16:42.543Z,2.37
2022-12-15T06:19:16.341Z,2.38
2022-12-15T06:21:45.152Z,2.55
2022-12-15T06:24:11.729Z,2.63
2022-12-15T06:26:40.207Z,2.68
2022-12-15T06:29:09.208Z,2.72
2022-12-15T06:31:37.379Z,2.82
2022-12-15T06:46:04.540Z,2.69
2022-12-15T06:48:31.980Z,2.70
2022-12-15T06:51:05.107Z,2.57
2022-12-15T06:53:32.306Z,2.50
2022-12-15T06:56:02.065Z,2.93
2022-12-15T06:58:28.836Z,2.87
2022-12-15T07:00:55.961Z,2.75
2022-12-15T07:03:23.202Z,2.97
2022-12-15T07:06:01.197Z,3.19
2022-12-15T07:08:32.172Z,3.05
2022-12-15T07:11:06.343Z,3.28
2022-12-15T07:13:33.832Z,3.25
2022-12-15T07:16:02.811Z,3.35
2022-12-15T07:18:29.825Z,2.90
2022-12-15T07:21:01.639Z,3.28
2022-12-15T07:23:52.773Z,2.96
2022-12-15T07:26:15.875Z,3.24
2022-12-15T07:28:42.416Z,3.22
2022-12-15T07:31:11.914Z,3.21
2022-12-15T07:33:39.093Z,3.05
2022-12-15T07:36:06.123Z,3.24
2022-12-15T07:38:32.681Z,2.90
2022-12-15T07:41:06.908Z,2.84
2022-12-15T07:43:34.347Z,3.26
2022-12-15T07:46:01.688Z,2.73
2022-12-15T07:48:29.240Z,2.97
2022-12-15T07:51:07.359Z,3.14
2022-12-15T07:53:36.545Z,3.33
2022-12-15T07:56:08.006Z,3.29
2022-12-15T07:58:35.612Z,3.32
2022-12-15T08:01:07.924Z,2.59
2022-12-15T08:03:35.903Z,2.85
2022-12-15T08:06:12.160Z,3.22
2022-12-15T08:08:40.860Z,3.09
2022-12-15T08:11:13.540Z,3.42
2022-12-15T08:16:28.055Z,3.42
2022-12-15T08:18:57.099Z,3.31
2022-12-15T08:21:23.682Z,3.53
2022-12-15T08:23:50.740Z,3.30
2022-12-15T08:26:18.840Z,3.41
2022-12-15T08:28:46.076Z,3.51
2022-12-15T08:31:17.585Z,3.63
2022-12-15T08:33:45.551Z,3.59
2022-12-15T08:36:14.204Z,3.76
2022-12-15T08:38:42.820Z,3.72
2022-12-15T08:41:11.857Z,4.03
2022-12-15T08:43:44.007Z,3.90
2022-12-15T08:46:14.801Z,3.94
2022-12-15T08:48:41.411Z,4.11
2022-12-15T08:51:08.218Z,4.16
2022-12-15T08:53:34.807Z,3.67
2022-12-15T08:56:13.182Z,3.85
2022-12-15T08:58:40.024Z,3.95
2022-12-15T09:01:17.474Z,3.99
2022-12-15T09:03:50.146Z,4.10
2022-12-15T09:06:19.629Z,4.16
2022-12-15T09:08:48.467Z,4.03
2022-12-15T09:11:17.639Z,4.13
2022-12-15T09:13:44.843Z,3.35
2022-12-15T09:16:18.231Z,4.07
2022-12-15T09:18:56.789Z,3.86
2022-12-15T09:21:26.352Z,4.39
2022-12-15T09:23:55.377Z,4.69
2022-12-15T09:26:23.786Z,4.38
2022-12-15T09:28:51.274Z,3.26
2022-12-15T09:31:37.973Z,3.63
2022-12-15T09:34:04.543Z,4.33
2022-12-15T09:36:35.325Z,4.35
2022-12-15T09:39:02.740Z,4.51
2022-12-15T09:41:34.537Z,4.60
2022-12-15T09:44:15.849Z,4.47
2022-12-15T09:47:07.574Z,4.47
2022-12-15T09:49:45.995Z,4.65
2022-12-15T09:52:23.736Z,4.12
2022-12-15T09:54:50.425Z,4.59
2022-12-15T09:57:40.414Z,4.73
2022-12-15T10:00:21.313Z,4.74
2022-12-15T10:02:49.930Z,4.45
2022-12-15T10:05:50.155Z,4.57
2022-12-15T10:08:16.778Z,4.51
2022-12-15T10:11:02.110Z,4.44
2022-12-15T10:13:53.472Z,4.67
2022-12-15T10:16:33.672Z,4.57
2022-12-15T10:19:07.873Z,4.22
2022-12-15T10:21:36.445Z,4.55
2022-12-15T10:25:08.643Z,4.53
2022-12-15T10:27:51.408Z,4.64
2022-12-15T10:30:18.222Z,4.79
2022-12-15T10:32:51.312Z,4.96
2022-12-15T10:35:25.125Z,4.59
2022-12-15T10:37:51.690Z,3.99
2022-12-15T10:40:19.891Z,4.55
2022-12-15T10:42:49.830Z,4.46
2022-12-15T10:45:39.099Z,4.59
2022-12-15T10:48:06.996Z,4.84
2022-12-15T10:50:35.306Z,4.52
2022-12-15T10:53:08.413Z,4.95
2022-12-15T10:55:39.845Z,4.96
2022-12-15T10:58:21.471Z,4.34
2022-12-15T11:01:04.601Z,4.62
2022-12-15T11:03:38.283Z,5.08
2022-12-15T11:06:15.480Z,5.09
2022-12-15T11:08:43.316Z,5.14
2022-12-15T11:34:11.720Z,5.03
2022-12-15T11:36:50.240Z,3.92
2022-12-15T11:39:35.832Z,4.64
2022-12-15T11:42:22.836Z,4.95
2022-12-15T11:44:52.346Z,5.30
2022-12-15T11:48:01.792Z,5.37
2022-12-15T11:50:28.274Z,5.34
2022-12-15T11:53:08.084Z,5.05
2022-12-15T11:55:57.291Z,4.85
2022-12-15T12:02:24.911Z,5.12
2022-12-15T12:05:20.266Z,4.86
2022-12-15T12:07:50.404Z,4.65
2022-12-15T12:10:53.686Z,4.69
2022-12-15T12:13:50.311Z,4.47
2022-12-15T12:16:37.076Z,4.61
2022-12-15T12:19:10.087Z,4.61
2022-12-15T12:21:42.335Z,4.96
2022-12-15T12:24:27.755Z,5.22
2022-12-15T12:27:00.121Z,5.04
2022-12-15T12:29:45.594Z,5.18
2022-12-15T12:32:36.928Z,5.32
2022-12-15T12:35:31.601Z,5.24
2022-12-15T12:38:03.932Z,5.32
2022-12-15T12:40:54.568Z,5.46
2022-12-15T12:43:35.057Z,5.39
2022-12-15T12:46:11.011Z,5.29
2022-12-15T12:48:43.655Z,5.19
2022-12-15T12:51:18.790Z,5.37
2022-12-15T12:53:45.582Z,5.37
2022-12-15T12:56:37.164Z,5.57
2022-12-15T12:59:26.371Z,5.67
2022-12-15T15:38:58.377Z,3.17
2022-12-15T17:40:51.628Z,2.42
2022-12-15T17:43:21.045Z,2.37
2022-12-15T17:46:04.699Z,2.50
2022-12-15T17:48:31.764Z,2.92
2022-12-15T18:16:19.923Z,2.87
2022-12-15T18:18:47.799Z,2.87
2022-12-15T18:21:18.350Z,2.57
2022-12-15T18:23:46.230Z,2.38
2022-12-15T18:26:14.341Z,2.57
2022-12-15T18:28:41.362Z,2.65
2022-12-15T18:31:19.574Z,2.61
2022-12-15T18:33:48.823Z,2.41
2022-12-15T18:36:26.888Z,2.56
2022-12-15T18:54:57.883Z,2.63
2022-12-15T18:57:41.382Z,2.48
2022-12-15T19:00:16.969Z,2.74
2022-12-15T19:02:49.791Z,3.02
2022-12-15T19:05:28.546Z,3.04
2022-12-15T19:08:13.876Z,2.88
2022-12-15T19:11:01.414Z,2.70
2022-12-15T19:13:33.866Z,2.58
2022-12-15T19:16:03.452Z,2.34
2022-12-15T19:18:49.109Z,1.91
2022-12-15T19:21:40.945Z,2.32
2022-12-15T19:32:08.411Z,1.96
2022-12-15T19:34:35.260Z,2.49
2022-12-15T19:42:46.570Z,2.90
2022-12-15T19:45:28.115Z,2.52
2022-12-15T19:47:58.373Z,2.64
2022-12-15T19:50:30.162Z,2.73
2022-12-15T19:53:02.159Z,2.73
2022-12-15T19:55:34.833Z,2.41
2022-12-15T20:48:50.168Z,2.12
2022-12-15T20:51:44.981Z,2.41
2022-12-15T20:54:18.806Z,2.33
2022-12-15T21:16:00.024Z,2.56
2022-12-15T21:19:10.832Z,2.59
2022-12-15T21:21:25.897Z,2.43
2022-12-15T21:23:52.643Z,2.88
2022-12-15T21:26:25.696Z,2.64
2022-12-15T21:28:59.420Z,2.63
2022-12-15T21:31:26.156Z,2.30
2022-12-15T21:33:55.198Z,2.42
2022-12-15T21:36:22.430Z,2.83
2022-12-15T21:38:51.716Z,2.44
2022-12-15T21:41:22.102Z,2.01
2022-12-15T21:43:49.473Z,2.49
2022-12-15T21:46:28.693Z,2.73
2022-12-15T21:49:14.777Z,3.32
2022-12-15T21:51:45.076Z,2.87
2022-12-15T21:54:19.327Z,2.49
2022-12-15T21:56:48.081Z,2.40
2022-12-15T21:59:17.255Z,3.03
2022-12-15T22:01:43.955Z,2.22
2022-12-15T22:04:16.371Z,2.68
2022-12-15T22:14:49.542Z,2.52
2022-12-15T22:17:18.398Z,2.62
2022-12-15T22:19:45.607Z,2.59
2022-12-15T22:25:47.634Z,2.41
2022-12-15T22:28:21.609Z,2.78
2022-12-15T22:30:51.257Z,2.87
2022-12-15T22:33:23.868Z,2.90
2022-12-15T22:35:52.247Z,2.80
2022-12-15T22:38:22.940Z,2.81
2022-12-15T22:40:52.174Z,2.90
2022-12-15T22:43:24.043Z,3.33
2022-12-15T22:45:52.976Z,3.39
2022-12-15T22:48:22.150Z,3.65
2022-12-15T22:50:48.725Z,3.46
2022-12-15T22:53:17.665Z,3.69
2022-12-15T22:55:49.658Z,3.70
2022-12-15T22:58:25.774Z,3.37
2022-12-15T23:00:56.395Z,3.66
2022-12-15T23:03:23.406Z,2.96
2022-12-15T23:05:50.042Z,3.08
2022-12-15T23:08:16.624Z,3.50
2022-12-15T23:11:01.625Z,3.27
2022-12-15T23:13:28.172Z,3.16
2022-12-15T23:16:13.333Z,2.85
2022-12-15T23:18:39.922Z,3.39
2022-12-15T23:21:08.080Z,2.99
2022-12-15T23:23:35.603Z,3.00
2022-12-15T23:26:03.629Z,3.10
2022-12-15T23:28:30.604Z,2.97
2022-12-15T23:30:57.376Z,2.55
2022-12-15T23:33:25.071Z,2.44
2022-12-15T23:35:59.630Z,2.50
2022-12-15T23:38:27.271Z,2.38
2022-12-15T23:40:55.839Z,2.70
2022-12-15T23:43:24.298Z,2.65
2022-12-15T23:45:58.353Z,3.01
2022-12-15T23:48:25.348Z,2.51
2022-12-15T23:50:51.917Z,2.76
2022-12-15T23:53:18.504Z,2.70
